Webcam

2020/11/24 10:50 EBBR 241050Z 21009KT CAVOK 10/06 Q1023 NOSIG

Webcam

--- Refresh now ---